Decoded Metar for KFME (FORT MEADE in MD, USA) (IATA:N/A) | Meteo·Mobile Aviation Weather
aviador You're here:

KFME Decoded Metar

FORT MEADE in MD, USA
Report Time2019-07-16 10:21:00
UTC Time2019-07-16 10:46:05
Flight Rules mvfr MVFR
WindCalm
Visibility8047 m
Phenomena:N/A
Clouds:N/A
CeilingNone
Temp18°C (ISA +3)
Dew Point18°C (100% RH)
QNH1019 hPa
Density Alt610 ft
Elevation151 ft
Report Wrong Elevation
Raw Report
KFME 161021Z AUTO 00000KT 5SM 18/18 A3010 RMK AO1=

Extra information for KFME:More info

Metar Taf Metar & Taf Last 4 Metars F.Rules Stats Wind Profile Meteogram Temp Stats Airport Information Weather charts Add Link Nearby VenuesMetar ALERT Operation Metar Decoded Social comments

AIRNAV info for KFME